Assonet, Massachusetts
Current Conditions -  °F | °C
As of 8:52 AM on Tuesday 27 Jan 2015 (Local Time) from KTAN Reporting Station
Haze Haze  
Wind Chill:   Ceiling: 1900
Heat Index: 18°   Visibility: 1mi
Dew Point: 13°   Wind: 18mph
Humidity: 81%   Direction: 350°N
Pressure: 29.47"   Gusts: 31mph
Location:  41.8°N, 71.07°W
Report Text: KTAN 271352Z AUTO 35016G27KT 1SM HZ VV019 M08/M11 A2947 RMK AO2 PK WND 35032/1256 SLP980 T10781106 PWINO FZRANO $
Loading
Personal Weather Stations






























Interactive Weather Map New forecast layout! Learn more

10-Day Weather Forecast

Advertisements
Track Severe Weather on mobile